»·PEaware :: QXE2475 KSEA-KSTS

QXE2475 :: KSEA-KSTS

FLIGHT INFORMATION

Flight Status: Arrived
Operator:
Horizon Air
More flights by this operator :: More flights under this callsign
Pilot: Kyle A. (14988)
Aircraft: DEHAVILLAND DASH 8 400
(DH8D)
More flights by this aircraft type
Origin: KSEA Seattle-Tacoma Intl
United States
Destination: KSTS Sonoma Co
United States
More flights between these airports :: More routes between these airports
Route: ALDER BTG J189 LMT J65 RBL SGD
File this flight plan on PilotEdge
Remarks:
Altitude:
(Current/Filed)
23,000ft
Speed:
(Current/Filed)
319kts
Departed: 08-Mar-18 09:48 AM
Arrived: 08-Mar-18 11:59 AM
Distance/Time
Traveled:
537nm/2:11
Distance/Time
To Go:
Arrived

Flight Plot

Page will automatically refresh every two minutes.

Flight plan parsing failed; only flown route is shown


Map Options




Map Legend


Flown Route
Filed Route
Departure Airport
Arrival Airport
Navaid (VOR, NDB)
Fix

Horizontal Profiles

Position Reports

Time Latitude Longitude Heading Altitude Ground
Speed
08-Mar-18 09:22 47.444100 -122.304828 136 440ft 0kts
08-Mar-18 09:23 47.444100 -122.304828 136 440ft 0kts
08-Mar-18 09:24 47.444100 -122.304828 136 440ft 0kts
08-Mar-18 09:25 47.444100 -122.304828 136 440ft 0kts
08-Mar-18 09:26 47.444100 -122.304828 136 440ft 0kts
08-Mar-18 09:27 47.444100 -122.304828 136 440ft 0kts
08-Mar-18 09:28 47.444100 -122.304828 136 440ft 0kts
08-Mar-18 09:29 47.444100 -122.304828 136 440ft 0kts
08-Mar-18 09:30 47.444100 -122.304828 136 440ft 0kts
08-Mar-18 09:31 47.444100 -122.304828 136 440ft 0kts
08-Mar-18 09:32 47.444100 -122.304828 136 440ft 0kts
08-Mar-18 09:33 47.444100 -122.304828 136 440ft 0kts
08-Mar-18 09:34 47.444100 -122.304828 136 440ft 0kts
08-Mar-18 09:35 47.444100 -122.304828 136 440ft 0kts
08-Mar-18 09:36 47.444100 -122.304828 136 440ft 0kts
08-Mar-18 09:37 47.444100 -122.304828 136 440ft 0kts
08-Mar-18 09:38 47.444281 -122.305148 113 440ft 2kts
08-Mar-18 09:39 47.444120 -122.305441 0 440ft 0kts
08-Mar-18 09:40 47.444120 -122.305441 0 440ft 0kts
08-Mar-18 09:41 47.444120 -122.305441 0 440ft 0kts
08-Mar-18 09:42 47.444120 -122.305441 0 440ft 0kts
08-Mar-18 09:43 47.444120 -122.305441 0 440ft 0kts
08-Mar-18 09:44 47.444120 -122.305441 0 440ft 0kts
08-Mar-18 09:45 47.444120 -122.305441 0 440ft 0kts
08-Mar-18 09:46 47.444823 -122.305985 313 440ft 13kts
08-Mar-18 09:47 47.448526 -122.306291 358 440ft 11kts
08-Mar-18 09:48 47.451367 -122.306319 1 440ft 9kts
08-Mar-18 09:49 47.454811 -122.306260 0 440ft 16kts
08-Mar-18 09:50 47.460076 -122.306208 0 440ft 17kts
08-Mar-18 09:51 47.463184 -122.306175 0 440ft 10kts
08-Mar-18 09:52 47.463662 -122.306443 308 440ft 0kts
08-Mar-18 09:53 47.463659 -122.306436 309 440ft 0kts
08-Mar-18 09:54 47.462293 -122.307795 180 440ft 11kts
08-Mar-18 09:55 47.431864 -122.308389 178 1448ft 148kts
08-Mar-18 09:56 47.385453 -122.315452 181 2986ft 203kts
08-Mar-18 09:57 47.329531 -122.324405 186 5330ft 191kts
08-Mar-18 09:58 47.282617 -122.334682 186 8489ft 169kts
08-Mar-18 09:59 47.236310 -122.342937 187 11052ft 170kts
08-Mar-18 10:00 47.189002 -122.350881 190 13123ft 175kts
08-Mar-18 10:01 47.139545 -122.360060 190 14712ft 183kts
08-Mar-18 10:02 47.098814 -122.367320 189 14986ft 226kts
08-Mar-18 10:03 47.035751 -122.378041 189 15874ft 239kts
08-Mar-18 10:04 46.972426 -122.388576 190 17364ft 233kts
08-Mar-18 10:05 46.907814 -122.399527 190 18495ft 239kts
08-Mar-18 10:06 46.841594 -122.410885 190 19532ft 244kts
08-Mar-18 10:07 46.774383 -122.422299 190 20468ft 248kts
08-Mar-18 10:08 46.706817 -122.433678 190 21289ft 252kts
08-Mar-18 10:09 46.637575 -122.445334 190 22019ft 256kts
08-Mar-18 10:10 46.569199 -122.456718 190 22628ft 262kts
08-Mar-18 10:11 46.494680 -122.469212 190 22744ft 283kts
08-Mar-18 10:12 46.414505 -122.482457 190 22750ft 300kts
08-Mar-18 10:13 46.332242 -122.496006 190 22753ft 301kts
08-Mar-18 10:14 46.249791 -122.509578 190 22758ft 303kts
08-Mar-18 10:15 46.169655 -122.522831 190 22759ft 304kts
08-Mar-18 10:16 46.091889 -122.535485 190 22765ft 302kts
08-Mar-18 10:17 46.026193 -122.546280 190 22771ft 301kts
08-Mar-18 10:18 45.944115 -122.559313 191 22782ft 300kts
08-Mar-18 10:19 45.876877 -122.570484 191 22792ft 300kts
08-Mar-18 10:20 45.795181 -122.583818 191 22801ft 299kts
08-Mar-18 10:21 45.714351 -122.583689 175 22803ft 309kts
08-Mar-18 10:22 45.632746 -122.562148 176 22806ft 308kts
08-Mar-18 10:23 45.551423 -122.541708 176 22808ft 309kts
08-Mar-18 10:24 45.482896 -122.524330 176 22816ft 308kts
08-Mar-18 10:25 45.400504 -122.503640 176 22818ft 309kts
08-Mar-18 10:26 45.316686 -122.482575 176 22815ft 309kts
08-Mar-18 10:27 45.232573 -122.461444 177 22813ft 310kts
08-Mar-18 10:28 45.148654 -122.440507 177 22813ft 310kts
08-Mar-18 10:29 45.064031 -122.419370 177 22814ft 310kts
08-Mar-18 10:30 44.979403 -122.397779 177 22816ft 311kts
08-Mar-18 10:31 44.895705 -122.376812 177 22819ft 310kts
08-Mar-18 10:32 44.811310 -122.354994 180 22833ft 313kts
08-Mar-18 10:33 44.725657 -122.334884 180 22840ft 315kts
08-Mar-18 10:34 44.639851 -122.314195 180 22842ft 317kts
08-Mar-18 10:35 44.553270 -122.292959 180 22845ft 318kts
08-Mar-18 10:36 44.468874 -122.272277 181 22857ft 318kts
08-Mar-18 10:37 44.382800 -122.251269 181 22865ft 320kts
08-Mar-18 10:38 44.294994 -122.229940 181 22868ft 323kts
08-Mar-18 10:39 44.207852 -122.208769 181 22867ft 324kts
08-Mar-18 10:40 44.119952 -122.187509 181 22870ft 326kts
08-Mar-18 10:41 44.031131 -122.166033 181 22903ft 326kts
08-Mar-18 10:42 43.942261 -122.144733 181 22906ft 326kts
08-Mar-18 10:43 43.852575 -122.123202 181 22909ft 327kts
08-Mar-18 10:44 43.766446 -122.102606 181 22911ft 327kts
08-Mar-18 10:45 43.676666 -122.081207 181 22914ft 327kts
08-Mar-18 10:46 43.587154 -122.059920 181 22918ft 327kts
08-Mar-18 10:47 43.498466 -122.038892 181 22922ft 327kts
08-Mar-18 10:48 43.409641 -122.017940 181 22927ft 325kts
08-Mar-18 10:49 43.321958 -121.997245 181 22939ft 326kts
08-Mar-18 10:50 43.248145 -121.980024 181 22945ft 326kts
08-Mar-18 10:51 43.159007 -121.959072 181 22963ft 326kts
08-Mar-18 10:52 43.055698 -121.934903 181 22970ft 326kts
08-Mar-18 10:53 42.981793 -121.917679 181 22975ft 327kts
08-Mar-18 10:54 42.896047 -121.897778 181 22982ft 327kts
08-Mar-18 10:55 42.791915 -121.873719 180 22988ft 327kts
08-Mar-18 10:56 42.717225 -121.856401 180 22993ft 327kts
08-Mar-18 10:57 42.629863 -121.836353 180 23000ft 327kts
08-Mar-18 10:58 42.541332 -121.815955 180 23012ft 326kts
08-Mar-18 10:59 42.452242 -121.795585 180 23018ft 326kts
08-Mar-18 11:00 42.364722 -121.775633 180 23021ft 326kts
08-Mar-18 11:01 42.277610 -121.755798 180 23024ft 326kts
08-Mar-18 11:02 42.190764 -121.736033 180 23026ft 326kts
08-Mar-18 11:03 42.106574 -121.739025 201 23027ft 305kts
08-Mar-18 11:04 42.023398 -121.761193 199 23027ft 307kts
08-Mar-18 11:05 41.940152 -121.782185 199 23028ft 307kts
08-Mar-18 11:06 41.856578 -121.803390 199 23030ft 307kts
08-Mar-18 11:07 41.773457 -121.824334 200 23032ft 307kts
08-Mar-18 11:08 41.689882 -121.845518 199 23058ft 306kts
08-Mar-18 11:09 41.606931 -121.866323 199 23069ft 306kts
08-Mar-18 11:10 41.524532 -121.886896 200 23079ft 306kts
08-Mar-18 11:11 41.441724 -121.907769 200 23090ft 305kts
08-Mar-18 11:12 41.361334 -121.927733 200 23100ft 304kts
08-Mar-18 11:13 41.278736 -121.948264 200 23120ft 303kts
08-Mar-18 11:14 41.195746 -121.968879 200 23131ft 303kts
08-Mar-18 11:15 41.113923 -121.989141 200 23134ft 303kts
08-Mar-18 11:16 41.033029 -122.009188 200 23140ft 302kts
08-Mar-18 11:17 40.950882 -122.029399 200 23149ft 301kts
08-Mar-18 11:18 40.870148 -122.049183 200 23159ft 300kts
08-Mar-18 11:19 40.789828 -122.068879 200 23169ft 299kts
08-Mar-18 11:20 40.736247 -122.082008 200 23176ft 299kts
08-Mar-18 11:21 40.655315 -122.101834 200 23183ft 298kts
08-Mar-18 11:22 40.604905 -122.114067 200 23188ft 297kts
08-Mar-18 11:23 40.525890 -122.133240 200 23190ft 296kts
08-Mar-18 11:24 40.448255 -122.152127 201 23193ft 296kts
08-Mar-18 11:25 40.371836 -122.170605 201 23194ft 295kts
08-Mar-18 11:26 40.292556 -122.189790 201 23197ft 295kts
08-Mar-18 11:27 40.214462 -122.208608 201 23201ft 294kts
08-Mar-18 11:28 40.135900 -122.227403 201 23201ft 295kts
08-Mar-18 11:29 40.054591 -122.240386 194 23202ft 303kts
08-Mar-18 11:30 39.971729 -122.245926 195 23202ft 302kts
08-Mar-18 11:31 39.892720 -122.251762 195 23203ft 302kts
08-Mar-18 11:32 39.809873 -122.257819 194 23205ft 302kts
08-Mar-18 11:33 39.728346 -122.263651 194 23204ft 303kts
08-Mar-18 11:34 39.652395 -122.290707 209 23208ft 285kts
08-Mar-18 11:35 39.578461 -122.325300 209 23209ft 286kts
08-Mar-18 11:36 39.505188 -122.359251 209 23209ft 286kts
08-Mar-18 11:37 39.430768 -122.393704 208 23209ft 286kts
08-Mar-18 11:38 39.357553 -122.427529 209 22264ft 284kts
08-Mar-18 11:39 39.285465 -122.460862 209 20846ft 281kts
08-Mar-18 11:40 39.213304 -122.494281 208 19423ft 281kts
08-Mar-18 11:41 39.140726 -122.521519 199 18331ft 279kts
08-Mar-18 11:42 39.069876 -122.537221 200 18139ft 253kts
08-Mar-18 11:43 39.002887 -122.553185 199 16474ft 259kts
08-Mar-18 11:44 38.934242 -122.569561 198 14835ft 262kts
08-Mar-18 11:45 38.864833 -122.586016 197 13191ft 263kts
08-Mar-18 11:49 38.692961 -122.626031 195 9376ft 209kts
08-Mar-18 11:50 38.635067 -122.639732 193 7881ft 224kts
08-Mar-18 11:51 38.575844 -122.653060 192 7016ft 203kts
08-Mar-18 11:52 38.521782 -122.664948 192 7006ft 208kts
08-Mar-18 11:53 38.465752 -122.677269 191 7001ft 218kts
08-Mar-18 11:54 38.408155 -122.689862 192 6809ft 225kts
08-Mar-18 11:55 38.349093 -122.704780 196 4728ft 212kts
08-Mar-18 11:56 38.294462 -122.712082 185 3625ft 194kts
08-Mar-18 11:57 38.251985 -122.698786 105 2986ft 167kts
08-Mar-18 11:58 38.283049 -122.680847 331 3069ft 162kts
08-Mar-18 11:59 38.311950 -122.699725 330 2994ft 146kts
08-Mar-18 12:00 38.347094 -122.721168 333 3015ft 171kts
08-Mar-18 12:01 38.380858 -122.740298 335 2648ft 141kts
08-Mar-18 12:02 38.416170 -122.759560 336 1963ft 139kts
08-Mar-18 12:03 38.452281 -122.779001 337 1183ft 134kts
08-Mar-18 12:04 38.484553 -122.796179 336 516ft 125kts
08-Mar-18 12:05 38.508188 -122.808864 337 133ft 83kts
08-Mar-18 12:06 38.514190 -122.811089 85 132ft 18kts
08-Mar-18 12:07 38.511491 -122.809014 157 132ft 15kts
08-Mar-18 12:08 38.509695 -122.807237 156 132ft 3kts
08-Mar-18 12:09 38.509854 -122.806256 65 132ft 0kts
08-Mar-18 12:10 38.509854 -122.806256 65 132ft 0kts

Navigation Log

Ident Type
Flight plan parsing failed, navigation log unavailable